createdAt,value
2023-01-28T00:04:04.842Z,1.83
2023-01-28T00:09:09.966Z,1.63
2023-01-28T00:14:13.936Z,1.60
2023-01-28T00:19:17.631Z,1.60
2023-01-28T00:24:23.048Z,1.70
2023-01-28T00:29:27.218Z,1.70
2023-01-28T00:34:30.841Z,1.80
2023-01-28T00:39:35.974Z,1.73
2023-01-28T00:44:39.714Z,1.70
2023-01-28T00:49:43.268Z,1.60
2023-01-28T00:54:48.254Z,1.65
2023-01-28T00:59:52.013Z,1.80
2023-01-28T01:05:01.519Z,1.80
2023-01-28T01:10:08.700Z,1.80
2023-01-28T01:15:13.426Z,1.70
2023-01-28T01:20:21.286Z,1.80
2023-01-28T01:25:26.410Z,1.80
2023-01-28T01:30:30.175Z,1.58
2023-01-28T01:35:34.321Z,1.98
2023-01-28T01:40:39.479Z,1.80
2023-01-28T01:45:43.668Z,1.83
2023-01-28T01:50:57.250Z,1.58
2023-01-28T01:56:08.940Z,1.80
2023-01-28T02:01:13.230Z,1.88
2023-01-28T02:06:18.227Z,1.70
2023-01-28T02:11:25.201Z,1.50
2023-01-28T02:16:29.562Z,1.70
2023-01-28T02:22:16.336Z,1.70
2023-01-28T02:27:36.171Z,1.50
2023-01-28T02:32:50.652Z,1.30
2023-01-28T02:38:02.099Z,1.63
2023-01-28T02:43:05.687Z,1.50
2023-01-28T02:48:10.720Z,1.60
2023-01-28T02:53:44.293Z,1.60
2023-01-28T02:58:57.312Z,1.58
2023-01-28T03:04:11.108Z,1.40
2023-01-28T03:09:27.134Z,1.60
2023-01-28T03:14:51.791Z,1.60
2023-01-28T03:20:14.079Z,1.45
2023-01-28T03:25:37.902Z,1.42
2023-01-28T03:31:06.017Z,1.60
2023-01-28T03:36:42.231Z,1.48
2023-01-28T03:42:00.565Z,1.38
2023-01-28T03:47:07.232Z,1.30
2023-01-28T03:52:13.436Z,1.52
2023-01-28T03:57:18.070Z,1.55
2023-01-28T04:02:23.923Z,1.33
2023-01-28T04:07:30.834Z,1.37
2023-01-28T04:12:45.586Z,1.17
2023-01-28T04:17:50.309Z,1.20
2023-01-28T04:23:08.953Z,1.42
2023-01-28T04:28:12.636Z,1.50
2023-01-28T04:33:16.997Z,1.17
2023-01-28T04:38:39.814Z,1.27
2023-01-28T04:43:56.046Z,1.20
2023-01-28T04:49:29.344Z,1.30
2023-01-28T04:55:04.591Z,1.27
2023-01-28T05:00:10.630Z,1.15
2023-01-28T05:05:14.609Z,1.10
2023-01-28T05:10:34.832Z,1.42
2023-01-28T05:15:38.700Z,1.20
2023-01-28T05:20:42.328Z,1.45
2023-01-28T05:25:47.582Z,1.10
2023-01-28T05:30:52.604Z,1.10
2023-01-28T05:35:56.247Z,1.10
2023-01-28T05:41:01.516Z,1.25
2023-01-28T05:46:06.849Z,0.98
2023-01-28T05:51:29.452Z,1.30
2023-01-28T05:56:36.791Z,1.10
2023-01-28T06:01:40.736Z,1.08
2023-01-28T06:06:45.116Z,1.10
2023-01-28T06:11:50.987Z,0.98
2023-01-28T06:16:55.459Z,0.90
2023-01-28T06:22:17.710Z,0.98
2023-01-28T06:27:23.064Z,1.20
2023-01-28T06:32:27.176Z,0.95
2023-01-28T06:37:30.869Z,1.15
2023-01-28T06:42:35.967Z,1.10
2023-01-28T06:47:40.834Z,1.10
2023-01-28T06:52:44.661Z,1.10
2023-01-28T06:57:49.754Z,0.90
2023-01-28T07:02:57.258Z,1.00
2023-01-28T07:08:02.312Z,1.07
2023-01-28T07:13:09.555Z,1.10
2023-01-28T07:18:13.189Z,1.00
2023-01-28T07:23:16.930Z,0.90
2023-01-28T07:28:22.329Z,1.05
2023-01-28T07:33:26.301Z,0.88
2023-01-28T07:38:29.965Z,1.10
2023-01-28T07:43:35.036Z,1.00
2023-01-28T07:48:38.766Z,0.93
2023-01-28T07:53:42.480Z,1.00
2023-01-28T07:58:50.527Z,1.00
2023-01-28T08:03:54.441Z,1.13
2023-01-28T08:08:58.099Z,0.90
2023-01-28T08:14:03.168Z,1.10
2023-01-28T08:19:06.833Z,0.90
2023-01-28T08:24:10.844Z,0.80
2023-01-28T08:29:17.365Z,0.98
2023-01-28T08:34:21.203Z,0.90
2023-01-28T08:39:24.823Z,0.98
2023-01-28T08:44:29.973Z,1.00
2023-01-28T08:49:33.897Z,1.10
2023-01-28T08:54:37.519Z,0.90
2023-01-28T08:59:45.130Z,1.00
2023-01-28T09:04:48.962Z,1.07
2023-01-28T09:09:52.640Z,0.98
2023-01-28T09:14:58.714Z,0.80
2023-01-28T09:20:02.601Z,0.90
2023-01-28T09:25:07.837Z,0.90
2023-01-28T09:30:15.079Z,0.90
2023-01-28T09:35:19.454Z,0.90
2023-01-28T09:40:36.329Z,1.00
2023-01-28T09:45:47.287Z,0.90
2023-01-28T09:50:55.085Z,1.00
2023-01-28T09:56:03.623Z,1.00
2023-01-28T10:01:44.749Z,0.90
2023-01-28T10:07:11.603Z,0.90
2023-01-28T10:12:42.742Z,1.00
2023-01-28T10:17:51.875Z,1.10
2023-01-28T10:23:03.800Z,1.00
2023-01-28T10:28:21.689Z,0.90
2023-01-28T10:33:36.897Z,1.10
2023-01-28T10:38:40.678Z,1.00
2023-01-28T10:43:44.514Z,1.05
2023-01-28T10:48:59.638Z,1.10
2023-01-28T10:54:03.614Z,1.00
2023-01-28T10:59:24.087Z,1.02
2023-01-28T11:04:32.431Z,1.00
2023-01-28T11:14:52.233Z,1.10
2023-01-28T11:20:00.777Z,1.05
2023-01-28T11:25:19.239Z,1.08
2023-01-28T11:30:26.996Z,1.10
2023-01-28T11:35:32.710Z,1.15
2023-01-28T11:40:36.338Z,1.20
2023-01-28T11:45:48.738Z,1.00
2023-01-28T11:51:05.171Z,1.13
2023-01-28T11:56:30.492Z,1.10
2023-01-28T12:01:46.423Z,1.00
2023-01-28T12:07:33.731Z,1.00
2023-01-28T12:12:58.749Z,1.00
2023-01-28T12:18:33.009Z,1.00
2023-01-28T12:24:10.325Z,1.05
2023-01-28T12:29:31.387Z,1.10
2023-01-28T12:35:21.588Z,1.10
2023-01-28T12:40:55.484Z,1.10
2023-01-28T12:46:06.154Z,1.10
2023-01-28T12:51:17.719Z,1.20
2023-01-28T12:56:30.112Z,1.10
2023-01-28T13:01:45.813Z,1.00
2023-01-28T13:06:53.680Z,1.20
2023-01-28T13:12:00.305Z,1.20
2023-01-28T13:17:13.142Z,1.20
2023-01-28T13:22:32.960Z,1.27
2023-01-28T13:27:38.000Z,1.50
2023-01-28T13:32:41.689Z,1.35
2023-01-28T13:37:47.303Z,1.30
2023-01-28T13:43:05.185Z,1.30
2023-01-28T13:48:25.901Z,1.45
2023-01-28T13:53:43.143Z,1.30
2023-01-28T13:59:42.146Z,1.45
2023-01-28T14:05:19.748Z,1.40
2023-01-28T14:10:39.909Z,1.48
2023-01-28T14:16:07.082Z,1.30
2023-01-28T14:21:15.055Z,1.70
2023-01-28T14:27:02.570Z,1.42
2023-01-28T14:32:15.335Z,1.33
2023-01-28T14:37:22.651Z,1.50
2023-01-28T14:42:31.995Z,1.50
2023-01-28T14:48:25.333Z,1.50
2023-01-28T14:54:16.457Z,1.40
2023-01-28T14:59:24.971Z,1.40
2023-01-28T15:04:33.611Z,1.38
2023-01-28T15:09:37.259Z,1.40
2023-01-28T15:14:41.342Z,1.40
2023-01-28T15:19:46.458Z,1.55
2023-01-28T15:24:50.134Z,1.33
2023-01-28T15:29:57.192Z,1.65
2023-01-28T15:35:02.548Z,1.48
2023-01-28T15:40:18.641Z,1.20
2023-01-28T15:45:25.995Z,1.48
2023-01-28T15:50:31.053Z,1.23
2023-01-28T15:55:41.145Z,1.30
2023-01-28T16:00:44.951Z,1.40
2023-01-28T16:06:01.848Z,1.38
2023-01-28T16:11:06.227Z,1.20
2023-01-28T16:16:10.711Z,1.30
2023-01-28T16:21:23.976Z,1.60
2023-01-28T16:26:31.412Z,1.50
2023-01-28T16:31:35.211Z,1.30
2023-01-28T16:36:40.551Z,1.40
2023-01-28T16:41:48.636Z,1.35
2023-01-28T16:46:52.353Z,1.38
2023-01-28T16:51:57.562Z,1.50
2023-01-28T16:57:02.072Z,1.30
2023-01-28T17:02:08.756Z,1.50
2023-01-28T17:07:13.933Z,1.38
2023-01-28T17:12:17.637Z,1.50
2023-01-28T17:17:21.320Z,1.42
2023-01-28T17:22:26.446Z,1.17
2023-01-28T17:27:30.061Z,1.30
2023-01-28T17:32:34.167Z,1.25
2023-01-28T17:37:39.513Z,1.50
2023-01-28T17:42:43.125Z,1.38
2023-01-28T17:47:46.936Z,1.40
2023-01-28T17:52:56.441Z,1.38
2023-01-28T17:58:00.243Z,1.58
2023-01-28T18:03:04.041Z,1.50
2023-01-28T18:08:11.826Z,1.30
2023-01-28T18:13:15.562Z,1.50
2023-01-28T18:18:19.412Z,1.40
2023-01-28T18:23:24.989Z,1.30
2023-01-28T18:28:29.744Z,1.52
2023-01-28T18:33:33.746Z,1.48
2023-01-28T18:38:38.776Z,1.60
2023-01-28T18:43:43.230Z,1.50
2023-01-28T18:48:47.211Z,1.60
2023-01-28T18:53:53.296Z,1.63
2023-01-28T18:58:57.882Z,1.60
2023-01-28T19:04:02.545Z,1.80
2023-01-28T19:09:12.742Z,1.70
2023-01-28T19:14:17.481Z,1.70
2023-01-28T19:19:21.790Z,1.60
2023-01-28T19:24:27.213Z,1.77
2023-01-28T19:29:30.969Z,1.98
2023-01-28T19:34:34.630Z,1.98
2023-01-28T19:39:39.934Z,1.77
2023-01-28T19:44:43.582Z,2.22
2023-01-28T19:49:47.203Z,2.08
2023-01-28T19:54:52.631Z,2.00
2023-01-28T19:59:56.353Z,2.03
2023-01-28T20:05:01.216Z,2.20
2023-01-28T20:10:09.217Z,1.92
2023-01-28T20:15:14.377Z,2.40
2023-01-28T20:20:19.949Z,2.70
2023-01-28T20:25:24.991Z,2.58
2023-01-28T20:30:28.652Z,2.75
2023-01-28T20:35:32.406Z,2.97
2023-01-28T20:40:40.218Z,2.70
2023-01-28T20:45:43.807Z,3.08
2023-01-28T20:50:47.700Z,3.00
2023-01-28T20:55:59.544Z,2.90
2023-01-28T21:01:04.545Z,3.17
2023-01-28T21:06:08.528Z,3.45
2023-01-28T21:11:14.639Z,3.70
2023-01-28T21:16:19.471Z,3.55
2023-01-28T21:21:26.806Z,3.47
2023-01-28T21:26:32.036Z,3.83
2023-01-28T21:31:35.713Z,4.03
2023-01-28T21:36:39.425Z,4.10
2023-01-28T21:41:44.456Z,3.83
2023-01-28T21:46:48.182Z,3.90
2023-01-28T21:51:51.939Z,4.43
2023-01-28T21:56:57.004Z,4.15
2023-01-28T22:02:03.091Z,4.30
2023-01-28T22:07:10.136Z,4.07
2023-01-28T22:12:16.773Z,4.60
2023-01-28T22:17:20.496Z,4.40
2023-01-28T22:22:24.286Z,5.15
2023-01-28T22:27:29.745Z,4.55
2023-01-28T22:32:33.630Z,4.85
2023-01-28T22:37:37.642Z,4.95
2023-01-28T22:42:42.798Z,4.82
2023-01-28T22:47:46.434Z,4.93
2023-01-28T22:52:51.325Z,5.28
2023-01-28T22:57:56.388Z,5.20
2023-01-28T23:03:00.623Z,4.72
2023-01-28T23:08:11.072Z,5.15
2023-01-28T23:13:17.604Z,5.40
2023-01-28T23:18:41.161Z,5.32
2023-01-28T23:24:02.252Z,5.20
2023-01-28T23:29:07.287Z,5.18
2023-01-28T23:34:10.992Z,5.70
2023-01-28T23:39:14.807Z,5.57
2023-01-28T23:44:25.145Z,5.20
2023-01-28T23:49:29.093Z,5.90
2023-01-28T23:54:33.316Z,5.60
2023-01-28T23:59:38.374Z,5.53
